Time;durP1;ratioP1;P1;durP2;ratioP2;P2;SDS_P1;SDS_P2;PMS_P1;PMS_P2;Temp;Humidity;BMP_temperature;BMP_pressure;BME280_temperature;BME280_humidity;BME280_pressure;Samples;Min_cycle;Max_cycle;Signal;HPM_P1;HPM_P2
2023/09/02 00:00:12;;;;;;;74.95;6.95;;;;;;;;;;2071322;28;20033;-71
2023/09/02 00:01:31;;;;;;;69.95;6.97;;;;;;;;;;2079674;28;20108;-71
2023/09/02 00:02:50;;;;;;;57.05;6.93;;;;;;;;;;2075931;28;20041;-71
2023/09/02 00:04:09;;;;;;;62.80;6.72;;;;;;;;;;2077627;28;20029;-70
2023/09/02 00:05:28;;;;;;;54.38;6.40;;;;;;;;;;2078959;28;20042;-70
2023/09/02 00:06:47;;;;;;;81.53;7.30;;;;;;;;;;2078755;28;20030;-71
2023/09/02 00:08:06;;;;;;;45.67;6.65;;;;;;;;;;2078092;28;20041;-71
2023/09/02 00:09:25;;;;;;;40.78;6.32;;;;;;;;;;2076426;28;20033;-71
2023/09/02 00:10:44;;;;;;;62.92;7.20;;;;;;;;;;2071515;28;20413;-71
2023/09/02 00:12:04;;;;;;;28.73;5.38;;;;;;;;;;2075613;28;20040;-71
2023/09/02 00:13:23;;;;;;;41.90;6.28;;;;;;;;;;2080028;28;20105;-70
2023/09/02 00:14:42;;;;;;;35.10;6.18;;;;;;;;;;2080604;28;20018;-71
2023/09/02 00:16:01;;;;;;;101.80;9.57;;;;;;;;;;2079185;28;20542;-71
2023/09/02 00:17:20;;;;;;;38.15;5.78;;;;;;;;;;2077787;28;20021;-72
2023/09/02 00:18:39;;;;;;;41.00;5.72;;;;;;;;;;2079765;28;20034;-71
2023/09/02 00:19:58;;;;;;;88.43;9.35;;;;;;;;;;2076589;28;20097;-70
2023/09/02 00:21:17;;;;;;;22.80;5.07;;;;;;;;;;2076263;28;20109;-71
2023/09/02 00:22:36;;;;;;;24.05;5.72;;;;;;;;;;2079564;28;20037;-71
2023/09/02 00:24:02;;;;;;;24.90;5.15;;;;;;;;;;2079245;28;20038;-71
2023/09/02 00:25:22;;;;;;;52.38;7.22;;;;;;;;;;2078043;28;20045;-68
2023/09/02 00:26:41;;;;;;;34.40;6.57;;;;;;;;;;2078685;28;20037;-71
2023/09/02 00:28:00;;;;;;;18.67;5.55;;;;;;;;;;2077126;28;20033;-71
2023/09/02 00:29:19;;;;;;;14.25;5.20;;;;;;;;;;2070918;28;20021;-69
2023/09/02 00:30:38;;;;;;;14.07;5.38;;;;;;;;;;2074529;28;20112;-71
2023/09/02 00:31:57;;;;;;;10.60;5.38;;;;;;;;;;2078075;28;20034;-72
2023/09/02 00:33:16;;;;;;;9.38;4.78;;;;;;;;;;2080862;28;20029;-71
2023/09/02 00:34:35;;;;;;;6.85;4.57;;;;;;;;;;2078471;28;20452;-71
2023/09/02 00:35:54;;;;;;;13.05;5.40;;;;;;;;;;2080244;28;20037;-72
2023/09/02 00:37:13;;;;;;;14.52;5.68;;;;;;;;;;2079445;28;20033;-69
2023/09/02 00:38:32;;;;;;;6.15;4.85;;;;;;;;;;2078061;28;20430;-69
2023/09/02 00:39:51;;;;;;;5.40;4.50;;;;;;;;;;2079031;28;20030;-72
2023/09/02 00:41:18;;;;;;;6.32;4.72;;;;;;;;;;2078046;28;20026;-71
2023/09/02 00:42:38;;;;;;;9.43;5.70;;;;;;;;;;2079380;28;20065;-71
2023/09/02 00:43:58;;;;;;;17.88;5.85;;;;;;;;;;2079075;28;20037;-71
2023/09/02 00:45:21;;;;;;;21.65;5.88;;;;;;;;;;2075445;28;20482;-71
2023/09/02 00:46:41;;;;;;;20.63;6.15;;;;;;;;;;2078115;28;20033;-72
2023/09/02 00:48:02;;;;;;;23.77;6.03;;;;;;;;;;2077065;28;20502;-72
2023/09/02 00:49:22;;;;;;;11.43;5.22;;;;;;;;;;2077225;28;20049;-70
2023/09/02 00:50:41;;;;;;;6.57;5.25;;;;;;;;;;2077883;28;20105;-72
2023/09/02 00:52:00;;;;;;;10.90;5.88;;;;;;;;;;2075759;28;20526;-68
2023/09/02 00:53:20;;;;;;;9.02;5.47;;;;;;;;;;2072486;28;20124;-70
2023/09/02 00:54:40;;;;;;;8.48;5.53;;;;;;;;;;2077316;28;20444;-70
2023/09/02 00:55:59;;;;;;;22.08;6.07;;;;;;;;;;2077064;28;20034;-68
2023/09/02 00:57:18;;;;;;;24.58;6.35;;;;;;;;;;2079420;28;20030;-67
2023/09/02 00:58:37;;;;;;;8.35;5.50;;;;;;;;;;2075056;28;20453;-70
2023/09/02 00:59:56;;;;;;;9.43;6.13;;;;;;;;;;2078084;28;21542;-69
2023/09/02 01:01:15;;;;;;;19.75;6.28;;;;;;;;;;2080273;28;20057;-70
2023/09/02 01:02:36;;;;;;;8.35;5.47;;;;;;;;;;2079485;28;20025;-65
2023/09/02 01:03:55;;;;;;;32.95;7.80;;;;;;;;;;2076380;28;20072;-70
2023/09/02 01:05:15;;;;;;;45.47;6.93;;;;;;;;;;2078539;28;20057;-70
2023/09/02 01:06:36;;;;;;;16.70;6.15;;;;;;;;;;2074562;28;20033;-70
2023/09/02 01:07:56;;;;;;;26.67;6.18;;;;;;;;;;2073448;28;22278;-70
2023/09/02 01:09:15;;;;;;;32.63;6.82;;;;;;;;;;2078437;28;20026;-69
2023/09/02 01:10:36;;;;;;;13.77;6.10;;;;;;;;;;2078119;28;20037;-70
2023/09/02 01:11:55;;;;;;;49.85;7.75;;;;;;;;;;2074167;28;20029;-67
2023/09/02 01:13:14;;;;;;;12.02;6.88;;;;;;;;;;2079591;28;20025;-70
2023/09/02 01:14:33;;;;;;;6.53;5.68;;;;;;;;;;2077824;28;20022;-68
2023/09/02 01:15:54;;;;;;;9.00;5.75;;;;;;;;;;2077105;28;20018;-70
2023/09/02 01:17:14;;;;;;;12.68;6.40;;;;;;;;;;2077450;28;20021;-72
2023/09/02 01:18:33;;;;;;;20.35;6.53;;;;;;;;;;2078125;28;20781;-66
2023/09/02 01:19:53;;;;;;;14.70;6.53;;;;;;;;;;2076970;28;20033;-71
2023/09/02 01:21:18;;;;;;;6.53;5.93;;;;;;;;;;2079494;28;20100;-65
2023/09/02 01:22:46;;;;;;;16.00;6.63;;;;;;;;;;2079214;28;20073;-72
2023/09/02 01:24:17;;;;;;;10.18;6.95;;;;;;;;;;2078501;28;20443;-72
2023/09/02 01:25:48;;;;;;;21.73;6.40;;;;;;;;;;2076281;28;20033;-70
2023/09/02 01:27:07;;;;;;;13.75;6.22;;;;;;;;;;2077119;28;20497;-70
2023/09/02 01:28:28;;;;;;;15.80;6.28;;;;;;;;;;2079431;28;20025;-72
2023/09/02 01:29:55;;;;;;;11.75;5.53;;;;;;;;;;2075995;28;20021;-66
2023/09/02 01:31:16;;;;;;;10.98;6.05;;;;;;;;;;2080247;28;20573;-67
2023/09/02 01:32:38;;;;;;;13.73;6.13;;;;;;;;;;2077189;28;20034;-71
2023/09/02 01:33:58;;;;;;;96.20;9.52;;;;;;;;;;2079779;28;20022;-68
2023/09/02 01:35:24;;;;;;;95.60;10.52;;;;;;;;;;2076478;28;20490;-70
2023/09/02 01:36:46;;;;;;;75.32;9.10;;;;;;;;;;2079593;28;20038;-70
2023/09/02 01:38:05;;;;;;;78.57;10.90;;;;;;;;;;2076340;28;20021;-64
2023/09/02 01:39:25;;;;;;;41.10;9.02;;;;;;;;;;2078732;28;20112;-70
2023/09/02 01:40:46;;;;;;;33.13;9.55;;;;;;;;;;2077926;28;20037;-70
2023/09/02 01:42:06;;;;;;;38.63;9.40;;;;;;;;;;2076573;28;20034;-70
2023/09/02 01:43:26;;;;;;;28.27;8.80;;;;;;;;;;2074291;28;20112;-70
2023/09/02 01:44:45;;;;;;;65.57;8.85;;;;;;;;;;2076291;28;20052;-63
2023/09/02 01:46:05;;;;;;;68.57;8.93;;;;;;;;;;2075397;28;20073;-63
2023/09/02 01:47:25;;;;;;;102.25;9.25;;;;;;;;;;2075010;28;20049;-70
2023/09/02 01:48:44;;;;;;;54.33;8.18;;;;;;;;;;2078365;28;20037;-71
2023/09/02 01:50:06;;;;;;;18.27;7.43;;;;;;;;;;2077879;28;20105;-69
2023/09/02 01:51:25;;;;;;;26.25;7.57;;;;;;;;;;2078374;28;20065;-70
2023/09/02 01:52:44;;;;;;;22.33;7.22;;;;;;;;;;2077056;28;20026;-65
2023/09/02 01:54:03;;;;;;;19.90;6.82;;;;;;;;;;2068718;28;20029;-68
2023/09/02 01:55:23;;;;;;;15.77;6.60;;;;;;;;;;2075448;28;20037;-68
2023/09/02 01:56:42;;;;;;;31.52;6.38;;;;;;;;;;2076960;28;20021;-72
2023/09/02 01:58:01;;;;;;;28.23;6.28;;;;;;;;;;2078703;28;20025;-73
2023/09/02 01:59:20;;;;;;;36.83;6.60;;;;;;;;;;2069286;28;20684;-71
2023/09/02 02:00:39;;;;;;;37.63;6.55;;;;;;;;;;2073173;28;20033;-72
2023/09/02 02:01:57;;;;;;;52.47;6.15;;;;;;;;;;2078042;28;20034;-71
2023/09/02 02:03:24;;;;;;;14.77;5.90;;;;;;;;;;2078581;28;20045;-73
2023/09/02 02:04:46;;;;;;;46.20;8.30;;;;;;;;;;2078890;28;20033;-67
2023/09/02 02:06:07;;;;;;;78.18;10.52;;;;;;;;;;2077678;28;20104;-71
2023/09/02 02:07:30;;;;;;;45.50;7.85;;;;;;;;;;2074534;28;20116;-67
2023/09/02 02:08:50;;;;;;;45.83;6.80;;;;;;;;;;2070737;28;20029;-69
2023/09/02 02:10:11;;;;;;;59.70;7.88;;;;;;;;;;2078000;28;20029;-69
2023/09/02 02:11:32;;;;;;;33.75;6.25;;;;;;;;;;2076305;28;20061;-71
2023/09/02 02:12:51;;;;;;;37.78;7.22;;;;;;;;;;2075852;28;20033;-71
2023/09/02 02:14:09;;;;;;;68.35;7.65;;;;;;;;;;2078394;28;20038;-72
2023/09/02 02:15:29;;;;;;;203.07;14.35;;;;;;;;;;2076014;28;20033;-72
2023/09/02 02:16:48;;;;;;;77.35;9.57;;;;;;;;;;2078123;28;20050;-70
2023/09/02 02:18:07;;;;;;;55.53;7.13;;;;;;;;;;2079351;28;20021;-63
2023/09/02 02:19:25;;;;;;;23.98;6.40;;;;;;;;;;2076623;28;20030;-65
2023/09/02 02:20:49;;;;;;;29.95;7.68;;;;;;;;;;2078208;28;20445;-71
2023/09/02 02:22:08;;;;;;;19.20;6.75;;;;;;;;;;2078197;28;20042;-65
2023/09/02 02:23:27;;;;;;;18.25;7.07;;;;;;;;;;2079748;28;20120;-72
2023/09/02 02:24:46;;;;;;;23.02;6.97;;;;;;;;;;2079010;28;20113;-70
2023/09/02 02:26:06;;;;;;;40.00;7.00;;;;;;;;;;2075762;28;20477;-71
2023/09/02 02:27:25;;;;;;;21.98;5.97;;;;;;;;;;2076948;28;20422;-71
2023/09/02 02:28:44;;;;;;;13.82;6.43;;;;;;;;;;2078114;28;20079;-70
2023/09/02 02:30:04;;;;;;;19.38;6.65;;;;;;;;;;2074562;28;20029;-72
2023/09/02 02:31:23;;;;;;;29.17;5.88;;;;;;;;;;2077518;28;20486;-71
2023/09/02 02:32:42;;;;;;;21.92;6.63;;;;;;;;;;2075838;28;20026;-71
2023/09/02 02:34:01;;;;;;;68.22;8.13;;;;;;;;;;2070429;28;20026;-72
2023/09/02 02:35:22;;;;;;;22.55;6.90;;;;;;;;;;2074596;28;20034;-69
2023/09/02 02:36:42;;;;;;;16.60;6.53;;;;;;;;;;2076059;28;20033;-71
2023/09/02 02:38:01;;;;;;;12.88;6.80;;;;;;;;;;2076532;28;20108;-71
2023/09/02 02:39:20;;;;;;;21.63;5.95;;;;;;;;;;2078814;28;20104;-71
2023/09/02 02:40:39;;;;;;;17.67;5.88;;;;;;;;;;2078403;28;20159;-71
2023/09/02 02:41:58;;;;;;;16.63;4.88;;;;;;;;;;2079441;28;20025;-70
2023/09/02 02:43:17;;;;;;;39.75;6.18;;;;;;;;;;2078848;28;20025;-72
2023/09/02 02:44:36;;;;;;;37.30;6.30;;;;;;;;;;2068790;28;20455;-71
2023/09/02 02:45:55;;;;;;;15.00;5.30;;;;;;;;;;2075064;28;20033;-72
2023/09/02 02:47:14;;;;;;;36.60;6.22;;;;;;;;;;2076261;28;20421;-67
2023/09/02 02:48:33;;;;;;;32.97;6.07;;;;;;;;;;2068721;28;20038;-70
2023/09/02 02:49:52;;;;;;;17.55;6.45;;;;;;;;;;2073838;28;20025;-71
2023/09/02 02:51:11;;;;;;;16.48;6.68;;;;;;;;;;2078431;28;20026;-66
2023/09/02 02:52:30;;;;;;;34.60;5.88;;;;;;;;;;2077024;28;20037;-72
2023/09/02 02:53:49;;;;;;;30.83;7.10;;;;;;;;;;2078934;28;20025;-71
2023/09/02 02:55:08;;;;;;;18.90;6.03;;;;;;;;;;2078304;28;20567;-71
2023/09/02 02:56:27;;;;;;;8.75;5.20;;;;;;;;;;2078268;28;20033;-70
2023/09/02 02:57:47;;;;;;;8.00;5.40;;;;;;;;;;2078343;28;20466;-74
2023/09/02 02:59:06;;;;;;;9.60;5.50;;;;;;;;;;2079473;28;20048;-72
2023/09/02 03:00:25;;;;;;;13.80;5.72;;;;;;;;;;2078020;28;20112;-62
2023/09/02 03:01:44;;;;;;;6.95;5.38;;;;;;;;;;2080532;28;20057;-71
2023/09/02 03:03:03;;;;;;;9.05;5.97;;;;;;;;;;2077598;28;20033;-73
2023/09/02 03:04:22;;;;;;;6.15;5.47;;;;;;;;;;2079703;28;20538;-73
2023/09/02 03:05:41;;;;;;;7.53;5.80;;;;;;;;;;2081254;28;20033;-71
2023/09/02 03:07:00;;;;;;;7.57;5.75;;;;;;;;;;2080395;28;20394;-72
2023/09/02 03:08:19;;;;;;;11.63;6.63;;;;;;;;;;2075822;28;20033;-72
2023/09/02 03:09:38;;;;;;;7.57;5.95;;;;;;;;;;2079006;28;20470;-72
2023/09/02 03:10:58;;;;;;;2.85;1.73;;;;;;;;;;2080321;28;20029;-71
2023/09/02 03:12:16;;;;;;;4.05;2.72;;;;;;;;;;2071455;28;20038;-68
2023/09/02 03:13:35;;;;;;;4.30;3.10;;;;;;;;;;2075741;28;20033;-73
2023/09/02 03:14:54;;;;;;;3.33;3.03;;;;;;;;;;2069367;28;20021;-68
2023/09/02 03:16:13;;;;;;;3.60;3.30;;;;;;;;;;2078026;28;20017;-71
2023/09/02 03:17:32;;;;;;;3.63;3.33;;;;;;;;;;2079200;28;20538;-71
2023/09/02 03:18:52;;;;;;;3.38;2.92;;;;;;;;;;2077676;28;20033;-71
2023/09/02 03:20:11;;;;;;;3.70;3.40;;;;;;;;;;2077394;28;20030;-72
2023/09/02 03:21:30;;;;;;;3.72;3.40;;;;;;;;;;2077751;28;20120;-72
2023/09/02 03:22:49;;;;;;;4.95;4.10;;;;;;;;;;2077721;28;20041;-70
2023/09/02 03:24:08;;;;;;;6.18;4.40;;;;;;;;;;2080125;28;20029;-72
2023/09/02 03:25:30;;;;;;;7.20;3.83;;;;;;;;;;2079370;28;20037;-68
2023/09/02 03:26:49;;;;;;;3.95;3.63;;;;;;;;;;2080464;28;20129;-73
2023/09/02 03:28:08;;;;;;;4.22;3.83;;;;;;;;;;2077074;28;20073;-70
2023/09/02 03:29:27;;;;;;;4.10;3.70;;;;;;;;;;2070589;28;20042;-73
2023/09/02 03:30:46;;;;;;;4.53;3.72;;;;;;;;;;2076184;28;20037;-73
2023/09/02 03:32:05;;;;;;;4.30;3.60;;;;;;;;;;2077293;28;20084;-73
2023/09/02 03:33:24;;;;;;;3.80;3.42;;;;;;;;;;2079991;28;20105;-73
2023/09/02 03:34:43;;;;;;;3.95;3.42;;;;;;;;;;2072986;28;20439;-64
2023/09/02 03:36:02;;;;;;;4.30;3.50;;;;;;;;;;2078718;28;20088;-71
2023/09/02 03:37:21;;;;;;;3.88;3.35;;;;;;;;;;2080101;28;20025;-72
2023/09/02 03:38:40;;;;;;;6.20;4.82;;;;;;;;;;2075003;28;20463;-72
2023/09/02 03:39:59;;;;;;;24.80;11.70;;;;;;;;;;2076430;28;20038;-73
2023/09/02 03:41:19;;;;;;;11.90;10.65;;;;;;;;;;2080266;28;20034;-73
2023/09/02 03:42:38;;;;;;;6.13;5.63;;;;;;;;;;2078283;28;20490;-72
2023/09/02 03:43:57;;;;;;;3.85;3.55;;;;;;;;;;2079540;28;20021;-69
2023/09/02 03:45:16;;;;;;;3.60;3.30;;;;;;;;;;2077175;28;20021;-73
2023/09/02 03:46:36;;;;;;;3.33;3.03;;;;;;;;;;2075905;28;20026;-69
2023/09/02 03:47:55;;;;;;;3.38;3.13;;;;;;;;;;2079766;28;20029;-65
2023/09/02 03:49:14;;;;;;;3.70;3.40;;;;;;;;;;2077765;28;20706;-72
2023/09/02 03:50:33;;;;;;;3.42;3.05;;;;;;;;;;2077995;28;20033;-73
2023/09/02 03:51:52;;;;;;;3.90;3.50;;;;;;;;;;2078181;28;20049;-73
2023/09/02 03:53:11;;;;;;;4.13;3.83;;;;;;;;;;2080514;28;20041;-73
2023/09/02 03:54:29;;;;;;;4.35;3.95;;;;;;;;;;2077573;28;20038;-68
2023/09/02 03:55:48;;;;;;;5.20;3.78;;;;;;;;;;2079373;28;20037;-70
2023/09/02 03:57:08;;;;;;;4.30;3.90;;;;;;;;;;2077047;28;20565;-70
2023/09/02 03:58:28;;;;;;;8.27;6.32;;;;;;;;;;2079318;28;20100;-73
2023/09/02 03:59:46;;;;;;;121.07;76.70;;;;;;;;;;2076123;28;20029;-68
2023/09/02 04:01:05;;;;;;;78.00;50.72;;;;;;;;;;2079211;28;20029;-73
2023/09/02 04:02:25;;;;;;;5.45;4.95;;;;;;;;;;2078227;28;20034;-72
2023/09/02 04:03:44;;;;;;;4.05;3.75;;;;;;;;;;2078225;28;20502;-73
2023/09/02 04:05:03;;;;;;;4.82;4.43;;;;;;;;;;2077956;28;20045;-73
2023/09/02 04:06:22;;;;;;;55.13;41.00;;;;;;;;;;2079564;28;20026;-73
2023/09/02 04:07:41;;;;;;;9.40;7.10;;;;;;;;;;2078684;28;20663;-73
2023/09/02 04:09:00;;;;;;;6.07;5.40;;;;;;;;;;2077774;28;20029;-72
2023/09/02 04:10:19;;;;;;;4.65;3.90;;;;;;;;;;2076764;28;20029;-73
2023/09/02 04:11:38;;;;;;;3.15;2.85;;;;;;;;;;2078963;28;20033;-70
2023/09/02 04:12:57;;;;;;;5.00;3.90;;;;;;;;;;2079131;28;20034;-71
2023/09/02 04:14:16;;;;;;;3.33;3.13;;;;;;;;;;2077876;28;20443;-73
2023/09/02 04:15:34;;;;;;;2.63;2.35;;;;;;;;;;2079573;28;20566;-73
2023/09/02 04:16:54;;;;;;;2.53;2.42;;;;;;;;;;2079179;28;20565;-72
2023/09/02 04:18:12;;;;;;;2.70;2.50;;;;;;;;;;2077184;28;20041;-74
2023/09/02 04:19:33;;;;;;;2.78;2.63;;;;;;;;;;2078766;28;20029;-71
2023/09/02 04:20:52;;;;;;;2.50;2.30;;;;;;;;;;2076613;28;20025;-73
2023/09/02 04:22:11;;;;;;;3.15;2.45;;;;;;;;;;2079893;28;20049;-74
2023/09/02 04:23:30;;;;;;;2.05;1.95;;;;;;;;;;2079466;28;20029;-72
2023/09/02 04:24:49;;;;;;;2.67;2.47;;;;;;;;;;2077281;28;20026;-73
2023/09/02 04:26:08;;;;;;;1.40;1.30;;;;;;;;;;2079064;28;20026;-74
2023/09/02 04:27:27;;;;;;;1.40;1.33;;;;;;;;;;2076149;28;20033;-69
2023/09/02 04:28:47;;;;;;;1.23;1.23;;;;;;;;;;2079871;28;20041;-73
2023/09/02 04:30:06;;;;;;;1.80;1.70;;;;;;;;;;2074530;28;20038;-72
2023/09/02 04:31:25;;;;;;;1.90;1.80;;;;;;;;;;2080133;28;20120;-71
2023/09/02 04:32:47;;;;;;;2.42;1.48;;;;;;;;;;2078984;28;20100;-72
2023/09/02 04:34:06;;;;;;;1.60;1.50;;;;;;;;;;2078382;28;20433;-71
2023/09/02 04:35:25;;;;;;;1.70;1.30;;;;;;;;;;2076689;28;20672;-73
2023/09/02 04:36:44;;;;;;;3.47;1.40;;;;;;;;;;2078043;28;20030;-71
2023/09/02 04:38:03;;;;;;;1.83;1.55;;;;;;;;;;2077168;28;20029;-72
2023/09/02 04:39:22;;;;;;;1.60;1.33;;;;;;;;;;2078088;28;20538;-72
2023/09/02 04:40:42;;;;;;;2.88;1.38;;;;;;;;;;2078641;28;20037;-72
2023/09/02 04:42:01;;;;;;;2.47;1.25;;;;;;;;;;2076268;28;20057;-72
2023/09/02 04:43:20;;;;;;;1.58;1.42;;;;;;;;;;2076986;28;20030;-72
2023/09/02 04:44:39;;;;;;;1.20;1.20;;;;;;;;;;2075280;28;20414;-73
2023/09/02 04:46:04;;;;;;;1.10;1.00;;;;;;;;;;2077967;28;20065;-72
2023/09/02 04:47:23;;;;;;;0.93;0.93;;;;;;;;;;2076162;28;20041;-72
2023/09/02 04:48:42;;;;;;;1.20;1.10;;;;;;;;;;2076382;28;20033;-74
2023/09/02 04:50:02;;;;;;;0.85;0.85;;;;;;;;;;2075324;28;20152;-65
2023/09/02 04:51:21;;;;;;;1.42;1.10;;;;;;;;;;2078545;28;20514;-72
2023/09/02 04:52:40;;;;;;;1.85;1.10;;;;;;;;;;2076886;28;20018;-72
2023/09/02 04:53:59;;;;;;;0.85;0.85;;;;;;;;;;2079729;28;20026;-73
2023/09/02 04:55:19;;;;;;;1.08;0.98;;;;;;;;;;2077549;28;20530;-67
2023/09/02 04:56:38;;;;;;;1.73;1.00;;;;;;;;;;2078640;28;20026;-74
2023/09/02 04:57:58;;;;;;;0.80;0.80;;;;;;;;;;2078448;28;20030;-73
2023/09/02 04:59:17;;;;;;;1.30;1.23;;;;;;;;;;2078857;28;20037;-73
2023/09/02 05:00:37;;;;;;;0.90;0.90;;;;;;;;;;2074360;28;20033;-76
2023/09/02 05:01:55;;;;;;;1.70;0.70;;;;;;;;;;2077810;28;20084;-73
2023/09/02 05:03:14;;;;;;;2.13;0.98;;;;;;;;;;2077726;28;20033;-71
2023/09/02 05:04:33;;;;;;;0.93;0.90;;;;;;;;;;2080413;28;20029;-75
2023/09/02 05:05:52;;;;;;;1.10;1.00;;;;;;;;;;2076032;28;20021;-73
2023/09/02 05:07:11;;;;;;;1.10;1.00;;;;;;;;;;2077272;28;20482;-73
2023/09/02 05:08:33;;;;;;;3.10;0.85;;;;;;;;;;2078519;28;20116;-73
2023/09/02 05:09:53;;;;;;;0.80;0.80;;;;;;;;;;2079149;28;20022;-72
2023/09/02 05:11:12;;;;;;;2.85;0.90;;;;;;;;;;2070707;28;20534;-73
2023/09/02 05:12:33;;;;;;;1.00;1.00;;;;;;;;;;2075066;28;20029;-73
2023/09/02 05:13:52;;;;;;;1.27;0.80;;;;;;;;;;2075604;28;20033;-65
2023/09/02 05:15:11;;;;;;;1.05;1.02;;;;;;;;;;2075292;28;20038;-71
2023/09/02 05:16:30;;;;;;;1.00;1.00;;;;;;;;;;2079870;28;20033;-71
2023/09/02 05:17:49;;;;;;;0.77;0.77;;;;;;;;;;2077159;28;20029;-74
2023/09/02 05:19:08;;;;;;;1.45;0.80;;;;;;;;;;2078816;28;20021;-71
2023/09/02 05:20:27;;;;;;;1.30;0.98;;;;;;;;;;2075828;28;20026;-72
2023/09/02 05:21:46;;;;;;;1.10;0.93;;;;;;;;;;2076544;28;20081;-67
2023/09/02 05:23:05;;;;;;;0.60;0.60;;;;;;;;;;2078101;28;20399;-67
2023/09/02 05:24:24;;;;;;;1.85;0.70;;;;;;;;;;2078890;28;20431;-72
2023/09/02 05:25:43;;;;;;;1.00;0.90;;;;;;;;;;2075158;28;20056;-71
2023/09/02 05:27:02;;;;;;;0.88;0.60;;;;;;;;;;2079591;28;20029;-73
2023/09/02 05:28:22;;;;;;;2.00;0.75;;;;;;;;;;2078285;28;20021;-74
2023/09/02 05:29:41;;;;;;;0.85;0.85;;;;;;;;;;2076707;28;20038;-71
2023/09/02 05:31:00;;;;;;;1.80;0.90;;;;;;;;;;2079904;28;20033;-73
2023/09/02 05:32:19;;;;;;;1.80;0.95;;;;;;;;;;2072416;28;21662;-73
2023/09/02 05:33:38;;;;;;;1.95;1.08;;;;;;;;;;2078255;28;20482;-71
2023/09/02 05:34:57;;;;;;;1.05;1.00;;;;;;;;;;2073225;28;20025;-73
2023/09/02 05:36:16;;;;;;;3.58;0.90;;;;;;;;;;2077240;28;20030;-74
2023/09/02 05:37:35;;;;;;;0.90;0.90;;;;;;;;;;2078073;28;20025;-68
2023/09/02 05:38:53;;;;;;;0.70;0.70;;;;;;;;;;2077902;28;20029;-73
2023/09/02 05:40:12;;;;;;;0.80;0.80;;;;;;;;;;2074485;28;20034;-74
2023/09/02 05:41:31;;;;;;;0.77;0.60;;;;;;;;;;2066181;28;20521;-73
2023/09/02 05:42:50;;;;;;;1.08;0.98;;;;;;;;;;2072062;28;20108;-72
2023/09/02 05:44:09;;;;;;;0.80;0.80;;;;;;;;;;2077715;28;20029;-68
2023/09/02 05:45:29;;;;;;;1.20;0.88;;;;;;;;;;2072671;28;20037;-64
2023/09/02 05:46:48;;;;;;;1.17;0.80;;;;;;;;;;2078631;28;20030;-72
2023/09/02 05:48:07;;;;;;;1.75;0.77;;;;;;;;;;2074504;28;20144;-72
2023/09/02 05:49:26;;;;;;;0.70;0.60;;;;;;;;;;2077258;28;20033;-74
2023/09/02 05:50:45;;;;;;;0.80;0.80;;;;;;;;;;2076123;28;20045;-73
2023/09/02 05:52:05;;;;;;;1.13;1.00;;;;;;;;;;2075911;28;20531;-73
2023/09/02 05:53:24;;;;;;;0.75;0.75;;;;;;;;;;2077669;28;20038;-72
2023/09/02 05:54:43;;;;;;;1.48;1.10;;;;;;;;;;2075667;28;20030;-67
2023/09/02 05:56:02;;;;;;;1.42;1.33;;;;;;;;;;2076560;28;20065;-67
2023/09/02 05:57:21;;;;;;;2.83;1.17;;;;;;;;;;2079969;28;20056;-69
2023/09/02 05:58:39;;;;;;;1.00;0.80;;;;;;;;;;2079377;28;20502;-74
2023/09/02 05:59:59;;;;;;;1.85;1.75;;;;;;;;;;2075702;28;20471;-66
2023/09/02 06:01:17;;;;;;;3.97;1.25;;;;;;;;;;2077396;28;20022;-64
2023/09/02 06:02:36;;;;;;;0.80;0.80;;;;;;;;;;2076033;28;20531;-73
2023/09/02 06:03:55;;;;;;;1.15;1.05;;;;;;;;;;2077714;28;20030;-72
2023/09/02 06:05:14;;;;;;;1.20;0.75;;;;;;;;;;2075307;28;20026;-72
2023/09/02 06:06:33;;;;;;;0.98;0.88;;;;;;;;;;2067088;28;20030;-69
2023/09/02 06:07:54;;;;;;;3.95;1.08;;;;;;;;;;2071088;28;20447;-66
2023/09/02 06:09:13;;;;;;;1.02;0.93;;;;;;;;;;2077307;28;20026;-73
2023/09/02 06:10:32;;;;;;;0.73;0.73;;;;;;;;;;2076991;28;20029;-74
2023/09/02 06:11:51;;;;;;;1.33;0.82;;;;;;;;;;2068951;28;20022;-71
2023/09/02 06:13:11;;;;;;;1.70;0.82;;;;;;;;;;2073196;28;20624;-73
2023/09/02 06:14:29;;;;;;;1.10;0.77;;;;;;;;;;2078181;28;20037;-62
2023/09/02 06:15:48;;;;;;;1.38;0.80;;;;;;;;;;2078629;28;20022;-73
2023/09/02 06:17:08;;;;;;;1.00;0.70;;;;;;;;;;2073282;28;20029;-68
2023/09/02 06:18:27;;;;;;;1.65;0.90;;;;;;;;;;2069761;28;20030;-71
2023/09/02 06:19:46;;;;;;;0.75;0.75;;;;;;;;;;2071285;28;20022;-73
2023/09/02 06:21:11;;;;;;;0.80;0.80;;;;;;;;;;2077604;28;20029;-71
2023/09/02 06:22:31;;;;;;;0.65;0.65;;;;;;;;;;2076319;28;20053;-72
2023/09/02 06:23:50;;;;;;;1.10;1.00;;;;;;;;;;2077187;28;20041;-72
2023/09/02 06:25:09;;;;;;;0.77;0.77;;;;;;;;;;2077191;28;20108;-74
2023/09/02 06:26:30;;;;;;;1.30;1.08;;;;;;;;;;2076740;28;20132;-72
2023/09/02 06:27:49;;;;;;;0.85;0.77;;;;;;;;;;2074207;28;20390;-72
2023/09/02 06:29:08;;;;;;;1.65;0.70;;;;;;;;;;2077367;28;20486;-72
2023/09/02 06:30:26;;;;;;;2.30;0.95;;;;;;;;;;2072356;28;20034;-66
2023/09/02 06:31:45;;;;;;;0.68;0.68;;;;;;;;;;2061694;28;20037;-69
2023/09/02 06:33:04;;;;;;;0.68;0.68;;;;;;;;;;2073556;28;20018;-70
2023/09/02 06:34:23;;;;;;;0.60;0.60;;;;;;;;;;2078183;28;20063;-70
2023/09/02 06:35:42;;;;;;;1.02;0.82;;;;;;;;;;2080617;28;20335;-70
2023/09/02 06:37:01;;;;;;;0.63;0.63;;;;;;;;;;2078526;28;20382;-70
2023/09/02 06:38:20;;;;;;;0.70;0.70;;;;;;;;;;2076923;28;20037;-68
2023/09/02 06:39:39;;;;;;;0.57;0.57;;;;;;;;;;2078699;28;20034;-67
2023/09/02 06:40:58;;;;;;;0.63;0.60;;;;;;;;;;2075179;28;20030;-65
2023/09/02 06:42:17;;;;;;;0.98;0.80;;;;;;;;;;2077005;28;20459;-69
2023/09/02 06:43:36;;;;;;;0.75;0.70;;;;;;;;;;2078983;28;20041;-70
2023/09/02 06:44:55;;;;;;;0.68;0.68;;;;;;;;;;2077245;28;20037;-64
2023/09/02 06:46:16;;;;;;;2.10;0.68;;;;;;;;;;2076082;28;20737;-70
2023/09/02 06:47:35;;;;;;;0.40;0.40;;;;;;;;;;2076157;28;20045;-69
2023/09/02 06:48:54;;;;;;;2.03;0.80;;;;;;;;;;2078992;28;20029;-65
2023/09/02 06:50:13;;;;;;;0.77;0.77;;;;;;;;;;2077613;28;20034;-71
2023/09/02 06:51:32;;;;;;;0.80;0.80;;;;;;;;;;2076062;28;20033;-68
2023/09/02 06:52:51;;;;;;;0.70;0.70;;;;;;;;;;2070344;28;20030;-69
2023/09/02 06:54:10;;;;;;;0.90;0.63;;;;;;;;;;2076749;28;20058;-69
2023/09/02 06:55:29;;;;;;;2.05;0.60;;;;;;;;;;2076270;28;20033;-69
2023/09/02 06:56:49;;;;;;;0.77;0.70;;;;;;;;;;2072813;28;20179;-60
2023/09/02 06:58:08;;;;;;;1.00;0.90;;;;;;;;;;2079592;28;20026;-68
2023/09/02 06:59:27;;;;;;;0.82;0.70;;;;;;;;;;2079771;28;20497;-69
2023/09/02 07:00:48;;;;;;;0.82;0.73;;;;;;;;;;2075041;28;20068;-63
2023/09/02 07:02:08;;;;;;;0.70;0.60;;;;;;;;;;2076772;28;20025;-68
2023/09/02 07:03:27;;;;;;;2.15;0.50;;;;;;;;;;2070659;28;20033;-68
2023/09/02 07:04:49;;;;;;;0.57;0.50;;;;;;;;;;2075921;28;20497;-69
2023/09/02 07:06:13;;;;;;;0.65;0.65;;;;;;;;;;2080847;28;20486;-68
2023/09/02 07:07:33;;;;;;;0.63;0.50;;;;;;;;;;2078922;28;20025;-67
2023/09/02 07:08:51;;;;;;;2.13;0.63;;;;;;;;;;2077427;28;20026;-70
2023/09/02 07:10:11;;;;;;;1.65;0.60;;;;;;;;;;2078274;28;21209;-68
2023/09/02 07:11:30;;;;;;;0.70;0.63;;;;;;;;;;2077375;28;20029;-66
2023/09/02 07:12:52;;;;;;;0.52;0.52;;;;;;;;;;2076805;28;20057;-70
2023/09/02 07:14:11;;;;;;;1.98;0.65;;;;;;;;;;2079069;28;20056;-70
2023/09/02 07:15:30;;;;;;;0.43;0.43;;;;;;;;;;2075692;28;20026;-69
2023/09/02 07:16:49;;;;;;;0.82;0.68;;;;;;;;;;2070834;28;20030;-69
2023/09/02 07:18:08;;;;;;;0.70;0.70;;;;;;;;;;2072149;28;20033;-68
2023/09/02 07:19:27;;;;;;;0.68;0.68;;;;;;;;;;2078431;28;20037;-70
2023/09/02 07:20:46;;;;;;;1.00;0.90;;;;;;;;;;2077018;28;20105;-69
2023/09/02 07:22:05;;;;;;;0.80;0.80;;;;;;;;;;2076200;28;20049;-65
2023/09/02 07:23:24;;;;;;;4.47;0.85;;;;;;;;;;2080403;28;20027;-67
2023/09/02 07:24:43;;;;;;;1.15;1.05;;;;;;;;;;2076833;28;20029;-67
2023/09/02 07:26:05;;;;;;;0.75;0.75;;;;;;;;;;2079448;28;20030;-68
2023/09/02 07:27:24;;;;;;;0.82;0.70;;;;;;;;;;2077130;28;20029;-60
2023/09/02 07:28:44;;;;;;;0.88;0.85;;;;;;;;;;2078412;28;20029;-67
2023/09/02 07:30:02;;;;;;;1.00;0.90;;;;;;;;;;2071839;28;20029;-68
2023/09/02 07:31:22;;;;;;;1.30;0.82;;;;;;;;;;2077109;28;20033;-67
2023/09/02 07:32:41;;;;;;;0.73;0.73;;;;;;;;;;2077788;28;20396;-63
2023/09/02 07:34:00;;;;;;;1.05;0.75;;;;;;;;;;2077783;28;20029;-68
2023/09/02 07:35:19;;;;;;;0.73;0.70;;;;;;;;;;2073536;28;20534;-61
2023/09/02 07:36:37;;;;;;;1.95;0.75;;;;;;;;;;2075568;28;20030;-67
2023/09/02 07:37:56;;;;;;;0.50;0.50;;;;;;;;;;2076609;28;20116;-68
2023/09/02 07:39:16;;;;;;;0.70;0.70;;;;;;;;;;2078248;28;20030;-67
2023/09/02 07:40:35;;;;;;;1.98;0.70;;;;;;;;;;2077491;28;20030;-68
2023/09/02 07:41:54;;;;;;;1.75;0.80;;;;;;;;;;2078028;28;20041;-67
2023/09/02 07:43:13;;;;;;;2.92;0.73;;;;;;;;;;2074367;28;20432;-66
2023/09/02 07:44:32;;;;;;;1.40;0.80;;;;;;;;;;2078341;28;20037;-66
2023/09/02 07:45:51;;;;;;;0.80;0.80;;;;;;;;;;2075228;28;20533;-69
2023/09/02 07:47:10;;;;;;;1.83;0.60;;;;;;;;;;2073054;28;20037;-65
2023/09/02 07:48:32;;;;;;;1.00;0.90;;;;;;;;;;2068604;28;20507;-68
2023/09/02 07:49:54;;;;;;;1.15;0.68;;;;;;;;;;2058516;28;20030;-66
2023/09/02 07:51:13;;;;;;;0.50;0.50;;;;;;;;;;2061963;28;20034;-65
2023/09/02 07:52:32;;;;;;;0.73;0.70;;;;;;;;;;2073849;28;20393;-68
2023/09/02 07:53:51;;;;;;;3.08;0.80;;;;;;;;;;2077438;28;20033;-69